KDLH/DLH METAR and TAF weather

Enter ICAO airport designator
Station Type Date Time Source
KDLH METAR 2022/11/30 22:55 UTC NOAA

KDLH 302255Z 29015G27KT 10SM SCT020 M10/M16 A2999 RMK AO2 PK WND 29038/2204 SLP185 T11001156


Station Type Date Time Source
KDLH Decoded METAR 2022/11/30 22:55 UTC NOAA

Duluth, Duluth International Airport, MN, United States (KDLH) 46-50-34N 092-13-34W 435M
Nov 30, 2022 - 05:55 PM EST / 2022.11.30 2255 UTC
Wind: from the WNW (290 degrees) at 17 MPH (15 KT) gusting to 31 MPH (27 KT):0
Visibility: 10 mile(s):0
Sky conditions: partly cloudy
Temperature: 14.0 F (-10.0 C)
Windchill: -2 F (-19 C):1
Dew Point: 3.9 F (-15.6 C)
Relative Humidity: 63%
Pressure (altimeter): 29.99 in. Hg (1015 hPa)
ob: KDLH 302255Z 29015G27KT 10SM SCT020 M10/M16 A2999 RMK AO2 PK WND 29038/2204 SLP185 T11001156
cycle: 23

Station Type Date Time Source
KDLH TAF 2022/11/30 21:27 UTC NOAA

TAF
AMD KDLH 302125Z 3021/0118 30022G32KT P6SM VCSH SCT025
FM010000 30018G30KT P6SM SCT025 SCT150
FM010400 30011G22KT P6SM SCT120
FM010700 30008KT P6SM SCT120
FM011200 16004KT P6SM BKN100

Example: see airport list